San Luis Rio Colorado, SON, Mexico
Current Conditions -  °F | °C
As of 4:57 AM on Monday 22 Dec 2014 (Local Time) from KNYL Reporting Station
Broken Clouds Broken Clouds  
Wind Chill: 49°   Ceiling: 25000
Heat Index: 49°   Visibility: 10mi
Dew Point: 40°   Wind: 3mph
Humidity: 71%   Direction: 350°N
Pressure: 30.01"   Gusts: NA
Location:  32.46°N, 114.78°W
Report Text: KNYL 221157Z 35003KT 10SM BKN250 09/04 A3001 RMK AO2 SLP161 T00940044 58004 $
Loading
Personal Weather Stations






























Interactive Weather Map New forecast layout! Learn more

10-Day Weather Forecast

Advertisements
Track Severe Weather on mobile